sensor_id;sensor_type;location;lat;lon;timestamp;P1;durP1;ratioP1;P2;durP2;ratioP2
6217;SDS011;3142;48.206;11.550;2022-09-09T00:01:33;3.77;;;3.17;;
6217;SDS011;3142;48.206;11.550;2022-09-09T00:04:10;3.43;;;2.43;;
6217;SDS011;3142;48.206;11.550;2022-09-09T00:06:43;1.83;;;1.17;;
6217;SDS011;3142;48.206;11.550;2022-09-09T00:09:15;2.07;;;1.57;;
6217;SDS011;3142;48.206;11.550;2022-09-09T00:11:45;4.37;;;1.70;;
6217;SDS011;3142;48.206;11.550;2022-09-09T00:14:18;4.33;;;1.60;;
6217;SDS011;3142;48.206;11.550;2022-09-09T00:16:55;2.80;;;1.53;;
6217;SDS011;3142;48.206;11.550;2022-09-09T00:19:27;2.60;;;1.20;;
6217;SDS011;3142;48.206;11.550;2022-09-09T00:22:02;2.23;;;1.37;;
6217;SDS011;3142;48.206;11.550;2022-09-09T00:24:41;1.47;;;1.17;;
6217;SDS011;3142;48.206;11.550;2022-09-09T00:27:11;1.53;;;1.30;;
6217;SDS011;3142;48.206;11.550;2022-09-09T00:29:45;3.33;;;1.47;;
6217;SDS011;3142;48.206;11.550;2022-09-09T00:32:19;23.30;;;19.03;;
6217;SDS011;3142;48.206;11.550;2022-09-09T00:34:48;38.93;;;28.83;;
6217;SDS011;3142;48.206;11.550;2022-09-09T00:37:17;25.43;;;18.67;;
6217;SDS011;3142;48.206;11.550;2022-09-09T00:39:46;8.83;;;5.77;;
6217;SDS011;3142;48.206;11.550;2022-09-09T00:42:14;4.53;;;2.47;;
6217;SDS011;3142;48.206;11.550;2022-09-09T00:47:44;1.77;;;1.07;;
6217;SDS011;3142;48.206;11.550;2022-09-09T00:50:17;2.17;;;1.53;;
6217;SDS011;3142;48.206;11.550;2022-09-09T00:53:05;1.87;;;1.10;;
6217;SDS011;3142;48.206;11.550;2022-09-09T00:55:44;3.53;;;1.47;;
6217;SDS011;3142;48.206;11.550;2022-09-09T00:58:15;2.13;;;1.07;;
6217;SDS011;3142;48.206;11.550;2022-09-09T01:00:43;2.37;;;1.30;;
6217;SDS011;3142;48.206;11.550;2022-09-09T01:06:01;3.40;;;1.30;;
6217;SDS011;3142;48.206;11.550;2022-09-09T01:08:36;3.17;;;1.20;;
6217;SDS011;3142;48.206;11.550;2022-09-09T01:11:15;3.30;;;1.17;;
6217;SDS011;3142;48.206;11.550;2022-09-09T01:13:47;1.40;;;1.30;;
6217;SDS011;3142;48.206;11.550;2022-09-09T01:16:18;2.10;;;1.20;;
6217;SDS011;3142;48.206;11.550;2022-09-09T01:18:48;1.70;;;1.27;;
6217;SDS011;3142;48.206;11.550;2022-09-09T01:21:19;2.00;;;1.53;;
6217;SDS011;3142;48.206;11.550;2022-09-09T01:24:01;1.90;;;1.43;;
6217;SDS011;3142;48.206;11.550;2022-09-09T01:26:37;1.87;;;1.50;;
6217;SDS011;3142;48.206;11.550;2022-09-09T01:29:06;1.70;;;1.40;;
6217;SDS011;3142;48.206;11.550;2022-09-09T01:31:35;2.47;;;1.30;;
6217;SDS011;3142;48.206;11.550;2022-09-09T01:34:08;1.63;;;1.40;;
6217;SDS011;3142;48.206;11.550;2022-09-09T01:36:38;2.37;;;1.20;;
6217;SDS011;3142;48.206;11.550;2022-09-09T01:39:09;1.50;;;1.40;;
6217;SDS011;3142;48.206;11.550;2022-09-09T01:41:38;1.50;;;1.30;;
6217;SDS011;3142;48.206;11.550;2022-09-09T01:44:04;3.17;;;1.50;;
6217;SDS011;3142;48.206;11.550;2022-09-09T01:46:32;1.63;;;1.50;;
6217;SDS011;3142;48.206;11.550;2022-09-09T01:48:58;3.43;;;1.60;;
6217;SDS011;3142;48.206;11.550;2022-09-09T01:51:28;3.17;;;1.60;;
6217;SDS011;3142;48.206;11.550;2022-09-09T01:53:54;2.20;;;1.30;;
6217;SDS011;3142;48.206;11.550;2022-09-09T01:56:24;2.30;;;1.40;;
6217;SDS011;3142;48.206;11.550;2022-09-09T01:59:06;2.97;;;1.40;;
6217;SDS011;3142;48.206;11.550;2022-09-09T02:01:46;3.10;;;1.53;;
6217;SDS011;3142;48.206;11.550;2022-09-09T02:04:26;1.50;;;1.30;;
6217;SDS011;3142;48.206;11.550;2022-09-09T02:07:02;2.37;;;1.57;;
6217;SDS011;3142;48.206;11.550;2022-09-09T02:09:31;1.20;;;1.10;;
6217;SDS011;3142;48.206;11.550;2022-09-09T02:12:00;2.30;;;1.40;;
6217;SDS011;3142;48.206;11.550;2022-09-09T02:14:34;2.33;;;1.40;;
6217;SDS011;3142;48.206;11.550;2022-09-09T02:17:06;1.53;;;1.30;;
6217;SDS011;3142;48.206;11.550;2022-09-09T02:19:37;2.10;;;1.20;;
6217;SDS011;3142;48.206;11.550;2022-09-09T02:22:05;2.50;;;1.50;;
6217;SDS011;3142;48.206;11.550;2022-09-09T02:24:32;2.20;;;1.30;;
6217;SDS011;3142;48.206;11.550;2022-09-09T02:27:01;2.00;;;1.43;;
6217;SDS011;3142;48.206;11.550;2022-09-09T02:29:35;2.07;;;1.47;;
6217;SDS011;3142;48.206;11.550;2022-09-09T02:32:06;2.60;;;1.70;;
6217;SDS011;3142;48.206;11.550;2022-09-09T02:34:38;2.03;;;1.70;;
6217;SDS011;3142;48.206;11.550;2022-09-09T02:37:08;2.27;;;1.43;;
6217;SDS011;3142;48.206;11.550;2022-09-09T02:39:36;3.13;;;2.33;;
6217;SDS011;3142;48.206;11.550;2022-09-09T02:42:03;2.77;;;2.33;;
6217;SDS011;3142;48.206;11.550;2022-09-09T02:44:30;11.73;;;8.87;;
6217;SDS011;3142;48.206;11.550;2022-09-09T02:47:03;18.20;;;12.70;;
6217;SDS011;3142;48.206;11.550;2022-09-09T02:49:47;4.33;;;3.17;;
6217;SDS011;3142;48.206;11.550;2022-09-09T02:52:26;3.30;;;2.37;;
6217;SDS011;3142;48.206;11.550;2022-09-09T02:54:59;3.90;;;2.00;;
6217;SDS011;3142;48.206;11.550;2022-09-09T02:57:33;3.40;;;2.00;;
6217;SDS011;3142;48.206;11.550;2022-09-09T03:00:00;2.90;;;1.97;;
6217;SDS011;3142;48.206;11.550;2022-09-09T03:02:29;2.60;;;2.00;;
6217;SDS011;3142;48.206;11.550;2022-09-09T03:04:55;5.97;;;3.27;;
6217;SDS011;3142;48.206;11.550;2022-09-09T03:07:23;9.10;;;7.00;;
6217;SDS011;3142;48.206;11.550;2022-09-09T03:09:49;3.13;;;2.17;;
6217;SDS011;3142;48.206;11.550;2022-09-09T03:12:16;4.83;;;2.33;;
6217;SDS011;3142;48.206;11.550;2022-09-09T03:14:42;4.07;;;2.30;;
6217;SDS011;3142;48.206;11.550;2022-09-09T03:17:10;3.20;;;1.60;;
6217;SDS011;3142;48.206;11.550;2022-09-09T03:19:38;2.30;;;1.77;;
6217;SDS011;3142;48.206;11.550;2022-09-09T03:22:06;2.07;;;1.63;;
6217;SDS011;3142;48.206;11.550;2022-09-09T03:24:32;1.97;;;1.40;;
6217;SDS011;3142;48.206;11.550;2022-09-09T03:26:59;3.03;;;1.40;;
6217;SDS011;3142;48.206;11.550;2022-09-09T03:29:25;1.50;;;1.40;;
6217;SDS011;3142;48.206;11.550;2022-09-09T03:31:52;3.50;;;1.53;;
6217;SDS011;3142;48.206;11.550;2022-09-09T03:34:18;4.13;;;1.53;;
6217;SDS011;3142;48.206;11.550;2022-09-09T03:36:46;2.83;;;1.33;;
6217;SDS011;3142;48.206;11.550;2022-09-09T03:39:13;3.83;;;1.50;;
6217;SDS011;3142;48.206;11.550;2022-09-09T03:41:40;4.13;;;1.80;;
6217;SDS011;3142;48.206;11.550;2022-09-09T03:44:06;2.97;;;1.40;;
6217;SDS011;3142;48.206;11.550;2022-09-09T03:46:33;3.77;;;1.33;;
6217;SDS011;3142;48.206;11.550;2022-09-09T03:48:59;3.70;;;1.50;;
6217;SDS011;3142;48.206;11.550;2022-09-09T03:51:27;3.27;;;1.40;;
6217;SDS011;3142;48.206;11.550;2022-09-09T03:53:55;3.03;;;1.33;;
6217;SDS011;3142;48.206;11.550;2022-09-09T03:56:21;1.73;;;1.30;;
6217;SDS011;3142;48.206;11.550;2022-09-09T03:58:48;1.47;;;1.23;;
6217;SDS011;3142;48.206;11.550;2022-09-09T04:01:14;1.20;;;1.10;;
6217;SDS011;3142;48.206;11.550;2022-09-09T04:03:42;3.83;;;1.50;;
6217;SDS011;3142;48.206;11.550;2022-09-09T04:06:10;5.97;;;1.30;;
6217;SDS011;3142;48.206;11.550;2022-09-09T04:08:38;2.63;;;1.23;;
6217;SDS011;3142;48.206;11.550;2022-09-09T04:11:06;1.30;;;1.20;;
6217;SDS011;3142;48.206;11.550;2022-09-09T04:13:33;1.83;;;1.40;;
6217;SDS011;3142;48.206;11.550;2022-09-09T04:16:00;1.23;;;1.10;;
6217;SDS011;3142;48.206;11.550;2022-09-09T04:18:29;1.70;;;1.23;;
6217;SDS011;3142;48.206;11.550;2022-09-09T04:20:57;1.70;;;1.37;;
6217;SDS011;3142;48.206;11.550;2022-09-09T04:23:24;5.53;;;1.47;;
6217;SDS011;3142;48.206;11.550;2022-09-09T04:25:51;2.60;;;1.20;;
6217;SDS011;3142;48.206;11.550;2022-09-09T04:28:21;1.63;;;1.20;;
6217;SDS011;3142;48.206;11.550;2022-09-09T04:30:49;3.50;;;1.30;;
6217;SDS011;3142;48.206;11.550;2022-09-09T04:33:15;3.80;;;1.17;;
6217;SDS011;3142;48.206;11.550;2022-09-09T04:35:43;15.93;;;14.03;;
6217;SDS011;3142;48.206;11.550;2022-09-09T04:38:10;3.63;;;2.13;;
6217;SDS011;3142;48.206;11.550;2022-09-09T04:40:37;3.80;;;1.93;;
6217;SDS011;3142;48.206;11.550;2022-09-09T04:43:05;5.03;;;2.13;;
6217;SDS011;3142;48.206;11.550;2022-09-09T04:45:33;8.27;;;2.70;;
6217;SDS011;3142;48.206;11.550;2022-09-09T04:47:59;4.47;;;3.20;;
6217;SDS011;3142;48.206;11.550;2022-09-09T04:50:27;3.60;;;1.80;;
6217;SDS011;3142;48.206;11.550;2022-09-09T04:52:53;5.07;;;2.40;;
6217;SDS011;3142;48.206;11.550;2022-09-09T04:55:20;3.53;;;2.33;;
6217;SDS011;3142;48.206;11.550;2022-09-09T04:57:46;2.83;;;1.97;;
6217;SDS011;3142;48.206;11.550;2022-09-09T05:00:13;3.20;;;1.70;;
6217;SDS011;3142;48.206;11.550;2022-09-09T05:02:43;2.27;;;2.07;;
6217;SDS011;3142;48.206;11.550;2022-09-09T05:05:09;2.40;;;1.70;;
6217;SDS011;3142;48.206;11.550;2022-09-09T05:07:37;1.80;;;1.47;;
6217;SDS011;3142;48.206;11.550;2022-09-09T05:10:03;6.87;;;1.97;;
6217;SDS011;3142;48.206;11.550;2022-09-09T05:12:30;5.80;;;3.30;;
6217;SDS011;3142;48.206;11.550;2022-09-09T05:14:57;2.47;;;1.80;;
6217;SDS011;3142;48.206;11.550;2022-09-09T05:17:24;4.57;;;3.67;;
6217;SDS011;3142;48.206;11.550;2022-09-09T05:19:51;3.60;;;1.90;;
6217;SDS011;3142;48.206;11.550;2022-09-09T05:22:18;3.03;;;1.70;;
6217;SDS011;3142;48.206;11.550;2022-09-09T05:24:46;1.77;;;1.47;;
6217;SDS011;3142;48.206;11.550;2022-09-09T05:27:15;1.90;;;1.30;;
6217;SDS011;3142;48.206;11.550;2022-09-09T05:29:43;2.10;;;1.60;;
6217;SDS011;3142;48.206;11.550;2022-09-09T05:32:09;3.00;;;1.43;;
6217;SDS011;3142;48.206;11.550;2022-09-09T05:34:36;2.70;;;1.60;;
6217;SDS011;3142;48.206;11.550;2022-09-09T05:37:05;8.47;;;3.50;;
6217;SDS011;3142;48.206;11.550;2022-09-09T05:39:32;6.03;;;2.23;;
6217;SDS011;3142;48.206;11.550;2022-09-09T05:42:01;5.30;;;2.10;;
6217;SDS011;3142;48.206;11.550;2022-09-09T05:44:27;4.43;;;1.90;;
6217;SDS011;3142;48.206;11.550;2022-09-09T05:46:54;3.67;;;2.00;;
6217;SDS011;3142;48.206;11.550;2022-09-09T05:49:20;5.37;;;2.00;;
6217;SDS011;3142;48.206;11.550;2022-09-09T05:51:47;4.00;;;1.83;;
6217;SDS011;3142;48.206;11.550;2022-09-09T05:54:16;3.87;;;1.77;;
6217;SDS011;3142;48.206;11.550;2022-09-09T05:56:43;3.87;;;1.80;;
6217;SDS011;3142;48.206;11.550;2022-09-09T05:59:09;2.10;;;1.77;;
6217;SDS011;3142;48.206;11.550;2022-09-09T06:01:36;4.43;;;2.50;;
6217;SDS011;3142;48.206;11.550;2022-09-09T06:04:05;2.60;;;1.83;;
6217;SDS011;3142;48.206;11.550;2022-09-09T06:06:32;4.57;;;1.90;;
6217;SDS011;3142;48.206;11.550;2022-09-09T06:09:02;3.87;;;1.73;;
6217;SDS011;3142;48.206;11.550;2022-09-09T06:11:33;3.13;;;1.90;;
6217;SDS011;3142;48.206;11.550;2022-09-09T06:14:01;3.67;;;1.60;;
6217;SDS011;3142;48.206;11.550;2022-09-09T06:16:28;4.80;;;2.13;;
6217;SDS011;3142;48.206;11.550;2022-09-09T06:18:57;6.23;;;1.70;;
6217;SDS011;3142;48.206;11.550;2022-09-09T06:21:25;4.20;;;1.73;;
6217;SDS011;3142;48.206;11.550;2022-09-09T06:23:53;6.20;;;1.73;;
6217;SDS011;3142;48.206;11.550;2022-09-09T06:26:20;2.40;;;1.50;;
6217;SDS011;3142;48.206;11.550;2022-09-09T06:28:49;4.50;;;2.00;;
6217;SDS011;3142;48.206;11.550;2022-09-09T06:31:17;3.80;;;1.87;;
6217;SDS011;3142;48.206;11.550;2022-09-09T06:33:46;3.27;;;1.40;;
6217;SDS011;3142;48.206;11.550;2022-09-09T06:36:15;1.90;;;1.60;;
6217;SDS011;3142;48.206;11.550;2022-09-09T06:38:43;4.67;;;1.70;;
6217;SDS011;3142;48.206;11.550;2022-09-09T06:41:10;4.47;;;1.70;;
6217;SDS011;3142;48.206;11.550;2022-09-09T06:43:38;5.03;;;1.77;;
6217;SDS011;3142;48.206;11.550;2022-09-09T06:46:08;5.50;;;2.00;;
6217;SDS011;3142;48.206;11.550;2022-09-09T06:48:36;2.73;;;1.67;;
6217;SDS011;3142;48.206;11.550;2022-09-09T06:51:05;5.10;;;1.50;;
6217;SDS011;3142;48.206;11.550;2022-09-09T06:53:34;5.63;;;1.97;;
6217;SDS011;3142;48.206;11.550;2022-09-09T06:56:02;4.03;;;1.50;;
6217;SDS011;3142;48.206;11.550;2022-09-09T06:58:43;2.77;;;1.50;;
6217;SDS011;3142;48.206;11.550;2022-09-09T07:01:11;4.47;;;1.63;;
6217;SDS011;3142;48.206;11.550;2022-09-09T07:03:39;1.93;;;1.33;;
6217;SDS011;3142;48.206;11.550;2022-09-09T07:06:07;2.30;;;1.27;;
6217;SDS011;3142;48.206;11.550;2022-09-09T07:08:39;3.33;;;1.43;;
6217;SDS011;3142;48.206;11.550;2022-09-09T07:11:07;3.13;;;1.70;;
6217;SDS011;3142;48.206;11.550;2022-09-09T07:13:34;2.90;;;1.43;;
6217;SDS011;3142;48.206;11.550;2022-09-09T07:16:03;6.47;;;1.30;;
6217;SDS011;3142;48.206;11.550;2022-09-09T07:18:32;1.57;;;1.33;;
6217;SDS011;3142;48.206;11.550;2022-09-09T07:20:59;2.13;;;1.40;;
6217;SDS011;3142;48.206;11.550;2022-09-09T07:23:27;2.17;;;1.40;;
6217;SDS011;3142;48.206;11.550;2022-09-09T07:25:54;2.07;;;1.50;;
6217;SDS011;3142;48.206;11.550;2022-09-09T07:28:20;1.67;;;1.43;;
6217;SDS011;3142;48.206;11.550;2022-09-09T07:30:52;3.73;;;1.40;;
6217;SDS011;3142;48.206;11.550;2022-09-09T07:33:20;3.10;;;1.63;;
6217;SDS011;3142;48.206;11.550;2022-09-09T07:35:48;2.43;;;1.50;;
6217;SDS011;3142;48.206;11.550;2022-09-09T07:38:14;3.80;;;1.53;;
6217;SDS011;3142;48.206;11.550;2022-09-09T07:40:41;1.63;;;1.40;;
6217;SDS011;3142;48.206;11.550;2022-09-09T07:43:08;4.27;;;1.90;;
6217;SDS011;3142;48.206;11.550;2022-09-09T07:45:35;2.47;;;1.47;;
6217;SDS011;3142;48.206;11.550;2022-09-09T07:48:01;41.47;;;26.53;;
6217;SDS011;3142;48.206;11.550;2022-09-09T07:50:28;36.23;;;25.30;;
6217;SDS011;3142;48.206;11.550;2022-09-09T07:52:56;33.30;;;23.60;;
6217;SDS011;3142;48.206;11.550;2022-09-09T07:55:22;12.23;;;9.23;;
6217;SDS011;3142;48.206;11.550;2022-09-09T07:57:51;5.27;;;3.10;;
6217;SDS011;3142;48.206;11.550;2022-09-09T08:00:18;3.27;;;1.90;;
6217;SDS011;3142;48.206;11.550;2022-09-09T08:02:47;3.40;;;1.70;;
6217;SDS011;3142;48.206;11.550;2022-09-09T08:05:13;2.60;;;1.70;;
6217;SDS011;3142;48.206;11.550;2022-09-09T08:07:40;2.47;;;1.70;;
6217;SDS011;3142;48.206;11.550;2022-09-09T08:10:08;2.33;;;1.50;;
6217;SDS011;3142;48.206;11.550;2022-09-09T08:12:34;4.37;;;1.70;;
6217;SDS011;3142;48.206;11.550;2022-09-09T08:15:01;2.03;;;1.50;;
6217;SDS011;3142;48.206;11.550;2022-09-09T08:17:27;5.03;;;2.07;;
6217;SDS011;3142;48.206;11.550;2022-09-09T08:19:54;3.37;;;1.70;;
6217;SDS011;3142;48.206;11.550;2022-09-09T08:22:20;2.03;;;1.40;;
6217;SDS011;3142;48.206;11.550;2022-09-09T08:24:47;3.70;;;1.70;;
6217;SDS011;3142;48.206;11.550;2022-09-09T08:27:14;2.37;;;1.53;;
6217;SDS011;3142;48.206;11.550;2022-09-09T08:29:41;2.50;;;1.50;;
6217;SDS011;3142;48.206;11.550;2022-09-09T08:32:07;6.53;;;5.40;;
6217;SDS011;3142;48.206;11.550;2022-09-09T08:34:34;5.60;;;4.20;;
6217;SDS011;3142;48.206;11.550;2022-09-09T08:37:00;3.77;;;2.77;;
6217;SDS011;3142;48.206;11.550;2022-09-09T08:39:27;3.80;;;2.40;;
6217;SDS011;3142;48.206;11.550;2022-09-09T08:41:59;2.70;;;2.03;;
6217;SDS011;3142;48.206;11.550;2022-09-09T08:44:50;18.30;;;12.77;;
6217;SDS011;3142;48.206;11.550;2022-09-09T08:47:28;35.90;;;25.27;;
6217;SDS011;3142;48.206;11.550;2022-09-09T08:50:07;9.67;;;6.50;;
6217;SDS011;3142;48.206;11.550;2022-09-09T08:52:47;7.40;;;5.70;;
6217;SDS011;3142;48.206;11.550;2022-09-09T08:55:21;7.57;;;3.60;;
6217;SDS011;3142;48.206;11.550;2022-09-09T08:57:55;4.23;;;2.07;;
6217;SDS011;3142;48.206;11.550;2022-09-09T09:00:23;5.70;;;1.73;;
6217;SDS011;3142;48.206;11.550;2022-09-09T09:03:01;4.83;;;2.20;;
6217;SDS011;3142;48.206;11.550;2022-09-09T09:05:35;5.27;;;2.60;;
6217;SDS011;3142;48.206;11.550;2022-09-09T09:08:08;5.43;;;2.50;;
6217;SDS011;3142;48.206;11.550;2022-09-09T09:10:45;5.73;;;3.37;;
6217;SDS011;3142;48.206;11.550;2022-09-09T09:13:19;6.57;;;1.97;;
6217;SDS011;3142;48.206;11.550;2022-09-09T09:15:50;7.87;;;3.27;;
6217;SDS011;3142;48.206;11.550;2022-09-09T09:18:19;8.33;;;5.60;;
6217;SDS011;3142;48.206;11.550;2022-09-09T09:20:50;6.37;;;3.50;;
6217;SDS011;3142;48.206;11.550;2022-09-09T09:23:25;3.60;;;2.00;;
6217;SDS011;3142;48.206;11.550;2022-09-09T09:25:56;2.90;;;2.13;;
6217;SDS011;3142;48.206;11.550;2022-09-09T09:28:29;3.50;;;2.23;;
6217;SDS011;3142;48.206;11.550;2022-09-09T09:30:58;2.23;;;1.60;;
6217;SDS011;3142;48.206;11.550;2022-09-09T09:33:31;4.67;;;1.80;;
6217;SDS011;3142;48.206;11.550;2022-09-09T09:36:02;2.57;;;1.50;;
6217;SDS011;3142;48.206;11.550;2022-09-09T09:38:33;2.93;;;1.60;;
6217;SDS011;3142;48.206;11.550;2022-09-09T09:41:01;3.47;;;1.50;;
6217;SDS011;3142;48.206;11.550;2022-09-09T09:43:30;8.73;;;4.20;;
6217;SDS011;3142;48.206;11.550;2022-09-09T09:45:58;3.47;;;2.13;;
6217;SDS011;3142;48.206;11.550;2022-09-09T09:48:25;5.97;;;1.60;;
6217;SDS011;3142;48.206;11.550;2022-09-09T09:50:54;3.40;;;1.90;;
6217;SDS011;3142;48.206;11.550;2022-09-09T09:53:24;3.33;;;1.60;;
6217;SDS011;3142;48.206;11.550;2022-09-09T09:55:55;3.77;;;1.70;;
6217;SDS011;3142;48.206;11.550;2022-09-09T09:58:24;4.03;;;2.07;;
6217;SDS011;3142;48.206;11.550;2022-09-09T10:00:54;1.43;;;1.30;;
6217;SDS011;3142;48.206;11.550;2022-09-09T10:03:22;1.60;;;1.20;;
6217;SDS011;3142;48.206;11.550;2022-09-09T10:05:50;3.53;;;1.60;;
6217;SDS011;3142;48.206;11.550;2022-09-09T10:08:17;5.40;;;1.80;;
6217;SDS011;3142;48.206;11.550;2022-09-09T10:10:51;3.63;;;1.40;;
6217;SDS011;3142;48.206;11.550;2022-09-09T10:13:34;3.10;;;1.30;;
6217;SDS011;3142;48.206;11.550;2022-09-09T10:16:13;3.83;;;1.50;;
6217;SDS011;3142;48.206;11.550;2022-09-09T10:18:55;4.13;;;2.13;;
6217;SDS011;3142;48.206;11.550;2022-09-09T10:21:32;2.20;;;1.60;;
6217;SDS011;3142;48.206;11.550;2022-09-09T10:27:11;2.73;;;1.83;;
6217;SDS011;3142;48.206;11.550;2022-09-09T10:29:48;3.27;;;1.40;;
6217;SDS011;3142;48.206;11.550;2022-09-09T10:32:32;7.07;;;1.70;;
6217;SDS011;3142;48.206;11.550;2022-09-09T10:35:04;3.07;;;1.67;;
6217;SDS011;3142;48.206;11.550;2022-09-09T10:37:41;3.37;;;1.30;;
6217;SDS011;3142;48.206;11.550;2022-09-09T10:40:25;1.93;;;1.20;;
6217;SDS011;3142;48.206;11.550;2022-09-09T10:42:59;1.37;;;1.17;;
6217;SDS011;3142;48.206;11.550;2022-09-09T10:45:35;1.80;;;1.20;;
6217;SDS011;3142;48.206;11.550;2022-09-09T10:48:18;1.70;;;1.60;;
6217;SDS011;3142;48.206;11.550;2022-09-09T10:50:58;1.93;;;1.23;;
6217;SDS011;3142;48.206;11.550;2022-09-09T10:53:35;1.67;;;1.20;;
6217;SDS011;3142;48.206;11.550;2022-09-09T10:56:10;5.60;;;1.60;;
6217;SDS011;3142;48.206;11.550;2022-09-09T10:58:40;1.87;;;1.10;;
6217;SDS011;3142;48.206;11.550;2022-09-09T11:01:13;2.07;;;1.60;;
6217;SDS011;3142;48.206;11.550;2022-09-09T11:03:46;1.10;;;1.00;;
6217;SDS011;3142;48.206;11.550;2022-09-09T11:06:19;3.13;;;1.30;;
6217;SDS011;3142;48.206;11.550;2022-09-09T11:08:48;4.07;;;1.60;;
6217;SDS011;3142;48.206;11.550;2022-09-09T11:11:19;8.90;;;4.53;;
6217;SDS011;3142;48.206;11.550;2022-09-09T11:13:53;4.38;;;1.50;;
6217;SDS011;3142;48.206;11.550;2022-09-09T11:16:24;3.97;;;2.00;;
6217;SDS011;3142;48.206;11.550;2022-09-09T11:18:57;3.97;;;3.13;;
6217;SDS011;3142;48.206;11.550;2022-09-09T11:21:28;4.53;;;3.27;;
6217;SDS011;3142;48.206;11.550;2022-09-09T11:24:01;3.72;;;1.40;;
6217;SDS011;3142;48.206;11.550;2022-09-09T11:26:31;4.60;;;2.20;;
6217;SDS011;3142;48.206;11.550;2022-09-09T11:29:08;2.27;;;1.70;;
6217;SDS011;3142;48.206;11.550;2022-09-09T11:31:53;1.17;;;0.90;;
6217;SDS011;3142;48.206;11.550;2022-09-09T11:34:37;2.03;;;1.10;;
6217;SDS011;3142;48.206;11.550;2022-09-09T11:37:19;1.85;;;1.02;;
6217;SDS011;3142;48.206;11.550;2022-09-09T11:40:14;2.25;;;1.00;;
6217;SDS011;3142;48.206;11.550;2022-09-09T11:42:45;2.17;;;1.20;;
6217;SDS011;3142;48.206;11.550;2022-09-09T11:45:20;2.08;;;1.10;;
6217;SDS011;3142;48.206;11.550;2022-09-09T11:47:53;4.30;;;0.90;;
6217;SDS011;3142;48.206;11.550;2022-09-09T11:50:30;3.00;;;1.13;;
6217;SDS011;3142;48.206;11.550;2022-09-09T11:53:03;2.20;;;1.50;;
6217;SDS011;3142;48.206;11.550;2022-09-09T11:55:47;3.40;;;1.90;;
6217;SDS011;3142;48.206;11.550;2022-09-09T11:58:15;4.35;;;2.53;;
6217;SDS011;3142;48.206;11.550;2022-09-09T12:00:44;2.90;;;1.40;;
6217;SDS011;3142;48.206;11.550;2022-09-09T12:06:10;4.88;;;0.90;;
6217;SDS011;3142;48.206;11.550;2022-09-09T12:08:40;1.77;;;1.45;;
6217;SDS011;3142;48.206;11.550;2022-09-09T12:11:11;4.90;;;2.67;;
6217;SDS011;3142;48.206;11.550;2022-09-09T12:13:37;1.10;;;1.00;;
6217;SDS011;3142;48.206;11.550;2022-09-09T12:16:26;1.38;;;1.27;;
6217;SDS011;3142;48.206;11.550;2022-09-09T12:19:02;2.45;;;1.27;;
6217;SDS011;3142;48.206;11.550;2022-09-09T12:21:33;1.33;;;0.75;;
6217;SDS011;3142;48.206;11.550;2022-09-09T12:24:04;1.13;;;0.80;;
6217;SDS011;3142;48.206;11.550;2022-09-09T12:26:35;2.58;;;0.90;;
6217;SDS011;3142;48.206;11.550;2022-09-09T12:29:11;1.58;;;0.73;;
6217;SDS011;3142;48.206;11.550;2022-09-09T12:31:50;2.05;;;1.13;;
6217;SDS011;3142;48.206;11.550;2022-09-09T12:34:24;2.22;;;1.20;;
6217;SDS011;3142;48.206;11.550;2022-09-09T12:37:04;2.30;;;1.00;;
6217;SDS011;3142;48.206;11.550;2022-09-09T12:39:38;1.05;;;0.88;;
6217;SDS011;3142;48.206;11.550;2022-09-09T12:42:18;1.88;;;0.98;;
6217;SDS011;3142;48.206;11.550;2022-09-09T12:44:52;1.52;;;0.90;;
6217;SDS011;3142;48.206;11.550;2022-09-09T12:47:19;1.73;;;1.08;;
6217;SDS011;3142;48.206;11.550;2022-09-09T12:49:48;2.67;;;1.00;;
6217;SDS011;3142;48.206;11.550;2022-09-09T12:52:18;1.85;;;0.90;;
6217;SDS011;3142;48.206;11.550;2022-09-09T12:54:51;2.17;;;1.00;;
6217;SDS011;3142;48.206;11.550;2022-09-09T12:57:19;1.58;;;0.90;;
6217;SDS011;3142;48.206;11.550;2022-09-09T12:59:48;0.85;;;0.80;;
6217;SDS011;3142;48.206;11.550;2022-09-09T13:02:17;3.35;;;1.27;;
6217;SDS011;3142;48.206;11.550;2022-09-09T13:04:46;2.95;;;1.10;;
6217;SDS011;3142;48.206;11.550;2022-09-09T13:07:13;1.52;;;0.85;;
6217;SDS011;3142;48.206;11.550;2022-09-09T13:09:42;1.35;;;0.90;;
6217;SDS011;3142;48.206;11.550;2022-09-09T13:12:11;1.80;;;1.08;;
6217;SDS011;3142;48.206;11.550;2022-09-09T13:14:42;0.85;;;0.82;;
6217;SDS011;3142;48.206;11.550;2022-09-09T13:17:15;0.93;;;0.82;;
6217;SDS011;3142;48.206;11.550;2022-09-09T13:19:45;1.40;;;0.90;;
6217;SDS011;3142;48.206;11.550;2022-09-09T13:22:12;1.17;;;0.98;;
6217;SDS011;3142;48.206;11.550;2022-09-09T13:24:40;1.65;;;1.17;;
6217;SDS011;3142;48.206;11.550;2022-09-09T13:27:23;1.55;;;0.93;;
6217;SDS011;3142;48.206;11.550;2022-09-09T13:29:54;0.77;;;0.77;;
6217;SDS011;3142;48.206;11.550;2022-09-09T13:32:21;1.90;;;0.80;;
6217;SDS011;3142;48.206;11.550;2022-09-09T13:34:53;2.40;;;0.90;;
6217;SDS011;3142;48.206;11.550;2022-09-09T13:37:22;2.58;;;0.98;;
6217;SDS011;3142;48.206;11.550;2022-09-09T13:39:53;1.95;;;1.40;;
6217;SDS011;3142;48.206;11.550;2022-09-09T13:42:25;1.20;;;0.83;;
6217;SDS011;3142;48.206;11.550;2022-09-09T13:44:54;3.63;;;1.02;;
6217;SDS011;3142;48.206;11.550;2022-09-09T13:47:26;1.23;;;1.00;;
6217;SDS011;3142;48.206;11.550;2022-09-09T13:49:56;0.93;;;0.73;;
6217;SDS011;3142;48.206;11.550;2022-09-09T13:52:22;1.58;;;0.90;;
6217;SDS011;3142;48.206;11.550;2022-09-09T13:54:51;1.55;;;0.90;;
6217;SDS011;3142;48.206;11.550;2022-09-09T13:57:20;0.82;;;0.82;;
6217;SDS011;3142;48.206;11.550;2022-09-09T13:59:49;0.80;;;0.80;;
6217;SDS011;3142;48.206;11.550;2022-09-09T14:02:16;0.90;;;0.73;;
6217;SDS011;3142;48.206;11.550;2022-09-09T14:04:43;1.52;;;0.80;;
6217;SDS011;3142;48.206;11.550;2022-09-09T14:07:11;1.17;;;0.77;;
6217;SDS011;3142;48.206;11.550;2022-09-09T14:09:39;2.63;;;0.80;;
6217;SDS011;3142;48.206;11.550;2022-09-09T14:12:08;1.00;;;0.90;;
6217;SDS011;3142;48.206;11.550;2022-09-09T14:14:35;1.93;;;1.20;;
6217;SDS011;3142;48.206;11.550;2022-09-09T14:17:03;0.80;;;0.80;;
6217;SDS011;3142;48.206;11.550;2022-09-09T14:19:30;0.80;;;0.77;;
6217;SDS011;3142;48.206;11.550;2022-09-09T14:21:57;2.87;;;0.87;;
6217;SDS011;3142;48.206;11.550;2022-09-09T14:24:23;1.10;;;0.93;;
6217;SDS011;3142;48.206;11.550;2022-09-09T14:26:50;1.17;;;0.80;;
6217;SDS011;3142;48.206;11.550;2022-09-09T14:29:17;3.43;;;0.90;;
6217;SDS011;3142;48.206;11.550;2022-09-09T14:31:43;1.37;;;0.97;;
6217;SDS011;3142;48.206;11.550;2022-09-09T14:34:11;1.00;;;1.00;;
6217;SDS011;3142;48.206;11.550;2022-09-09T14:36:39;1.10;;;1.00;;
6217;SDS011;3142;48.206;11.550;2022-09-09T14:39:06;1.63;;;0.90;;
6217;SDS011;3142;48.206;11.550;2022-09-09T14:41:33;1.30;;;0.70;;
6217;SDS011;3142;48.206;11.550;2022-09-09T14:44:00;0.90;;;0.80;;
6217;SDS011;3142;48.206;11.550;2022-09-09T14:46:26;1.00;;;0.90;;
6217;SDS011;3142;48.206;11.550;2022-09-09T14:48:52;2.07;;;1.00;;
6217;SDS011;3142;48.206;11.550;2022-09-09T14:51:21;1.87;;;0.80;;
6217;SDS011;3142;48.206;11.550;2022-09-09T14:53:50;2.58;;;0.98;;
6217;SDS011;3142;48.206;11.550;2022-09-09T14:56:18;8.87;;;1.07;;
6217;SDS011;3142;48.206;11.550;2022-09-09T14:58:47;1.13;;;0.90;;
6217;SDS011;3142;48.206;11.550;2022-09-09T15:01:14;1.63;;;0.90;;
6217;SDS011;3142;48.206;11.550;2022-09-09T15:03:42;2.10;;;1.07;;
6217;SDS011;3142;48.206;11.550;2022-09-09T15:06:15;2.20;;;1.27;;
6217;SDS011;3142;48.206;11.550;2022-09-09T15:08:43;1.70;;;1.40;;
6217;SDS011;3142;48.206;11.550;2022-09-09T15:11:11;5.77;;;2.07;;
6217;SDS011;3142;48.206;11.550;2022-09-09T15:13:40;1.77;;;1.30;;
6217;SDS011;3142;48.206;11.550;2022-09-09T15:16:09;0.90;;;0.80;;
6217;SDS011;3142;48.206;11.550;2022-09-09T15:18:36;4.83;;;1.03;;
6217;SDS011;3142;48.206;11.550;2022-09-09T15:21:05;2.20;;;1.10;;
6217;SDS011;3142;48.206;11.550;2022-09-09T15:23:32;3.67;;;2.20;;
6217;SDS011;3142;48.206;11.550;2022-09-09T15:26:00;2.07;;;0.83;;
6217;SDS011;3142;48.206;11.550;2022-09-09T15:28:28;1.87;;;0.90;;
6217;SDS011;3142;48.206;11.550;2022-09-09T15:30:55;4.40;;;1.03;;